createdAt,value
2022-12-13T00:01:21.141Z,58.21
2022-12-13T00:03:48.129Z,59.11
2022-12-13T00:06:15.203Z,58.38
2022-12-13T00:08:42.227Z,58.35
2022-12-13T00:11:12.033Z,57.89
2022-12-13T00:13:39.606Z,57.96
2022-12-13T00:16:10.282Z,57.73
2022-12-13T00:18:37.058Z,58.27
2022-12-13T00:21:15.874Z,58.12
2022-12-13T00:23:42.633Z,58.85
2022-12-13T00:26:15.364Z,58.99
2022-12-13T00:28:42.671Z,59.18
2022-12-13T00:31:43.570Z,59.69
2022-12-13T00:33:58.002Z,58.63
2022-12-13T00:36:24.915Z,59.15
2022-12-13T00:39:00.530Z,58.64
2022-12-13T00:41:32.994Z,58.03
2022-12-13T00:44:00.735Z,58.21
2022-12-13T00:46:28.791Z,58.17
2022-12-13T00:48:58.294Z,58.33
2022-12-13T00:51:27.135Z,57.53
2022-12-13T00:53:54.239Z,58.35
2022-12-13T00:56:25.480Z,57.67
2022-12-13T00:58:52.639Z,57.88
2022-12-13T01:01:25.854Z,58.30
2022-12-13T01:03:57.065Z,58.75
2022-12-13T01:06:38.794Z,58.79
2022-12-13T01:09:07.977Z,58.24
2022-12-13T01:11:34.859Z,58.42
2022-12-13T01:14:02.711Z,59.58
2022-12-13T01:16:29.575Z,59.42
2022-12-13T01:18:58.066Z,59.84
2022-12-13T01:21:24.839Z,59.70
2022-12-13T01:23:51.665Z,59.54
2022-12-13T01:26:21.531Z,59.33
2022-12-13T01:28:48.639Z,59.26
2022-12-13T01:31:19.879Z,59.16
2022-12-13T01:33:47.837Z,58.61
2022-12-13T01:36:18.732Z,59.30
2022-12-13T01:38:45.496Z,58.28
2022-12-13T01:41:18.393Z,58.43
2022-12-13T01:43:48.213Z,58.84
2022-12-13T01:46:17.263Z,58.99
2022-12-13T01:49:02.805Z,58.16
2022-12-13T01:51:42.203Z,57.71
2022-12-13T01:54:13.037Z,57.55
2022-12-13T01:56:52.454Z,57.36
2022-12-13T01:59:21.122Z,57.31
2022-12-13T02:01:50.596Z,57.60
2022-12-13T02:04:31.822Z,57.24
2022-12-13T02:06:59.197Z,57.40
2022-12-13T02:09:26.923Z,57.50
2022-12-13T02:11:54.047Z,57.82
2022-12-13T02:14:20.735Z,57.80
2022-12-13T02:17:06.271Z,58.14
2022-12-13T02:19:44.860Z,57.99
2022-12-13T02:22:33.087Z,58.24
2022-12-13T02:25:36.815Z,57.83
2022-12-13T02:28:31.312Z,57.76
2022-12-13T02:31:05.916Z,58.13
2022-12-13T02:34:06.632Z,57.88
2022-12-13T02:36:54.069Z,58.44
2022-12-13T02:39:31.134Z,58.21
2022-12-13T02:42:21.351Z,58.83
2022-12-13T02:45:09.527Z,58.67
2022-12-13T02:47:41.508Z,58.64
2022-12-13T02:50:10.572Z,58.18
2022-12-13T02:52:39.390Z,58.10
2022-12-13T02:55:13.977Z,57.75
2022-12-13T02:57:43.253Z,57.59
2022-12-13T03:00:17.183Z,57.88
2022-12-13T03:02:59.717Z,57.94
2022-12-13T03:06:07.273Z,58.14
2022-12-13T03:09:14.710Z,57.77
2022-12-13T03:12:12.039Z,57.83
2022-12-13T03:15:00.982Z,58.45
2022-12-13T03:17:36.300Z,58.80
2022-12-13T03:20:22.464Z,58.65
2022-12-13T03:22:51.151Z,59.12
2022-12-13T03:25:31.907Z,58.74
2022-12-13T03:28:02.075Z,59.49
2022-12-13T03:30:31.071Z,58.75
2022-12-13T03:32:58.026Z,58.61
2022-12-13T03:35:25.316Z,58.78
2022-12-13T03:38:02.532Z,58.41
2022-12-13T03:40:30.210Z,58.37
2022-12-13T03:42:57.084Z,58.73
2022-12-13T03:45:23.996Z,58.29
2022-12-13T03:47:50.794Z,58.03
2022-12-13T03:50:26.359Z,58.12
2022-12-13T03:53:01.621Z,58.64
2022-12-13T03:55:28.735Z,58.67
2022-12-13T03:57:55.844Z,58.42
2022-12-13T04:00:23.014Z,59.74
2022-12-13T04:02:51.669Z,58.72
2022-12-13T04:05:18.655Z,59.26
2022-12-13T04:07:48.507Z,59.16
2022-12-13T04:10:25.992Z,59.21
2022-12-13T04:13:13.248Z,59.43
2022-12-13T04:15:40.542Z,58.66
2022-12-13T04:18:07.291Z,58.76
2022-12-13T04:20:34.083Z,58.65
2022-12-13T04:23:00.898Z,58.97
2022-12-13T04:25:38.706Z,58.61
2022-12-13T04:28:06.770Z,59.12
2022-12-13T04:30:41.667Z,58.25
2022-12-13T04:33:08.567Z,58.22
2022-12-13T04:35:35.265Z,58.65
2022-12-13T04:38:02.188Z,58.38
2022-12-13T04:40:29.120Z,58.68
2022-12-13T04:42:55.930Z,58.74
2022-12-13T04:45:23.178Z,58.40
2022-12-13T04:47:50.195Z,58.87
2022-12-13T04:50:17.047Z,58.59
2022-12-13T04:52:46.936Z,58.20
2022-12-13T04:55:14.804Z,58.21
2022-12-13T04:57:41.827Z,57.89
2022-12-13T05:00:13.376Z,57.94
2022-12-13T05:02:41.826Z,58.21
2022-12-13T05:05:09.785Z,58.34
2022-12-13T05:07:42.659Z,58.29
2022-12-13T05:10:11.455Z,58.85
2022-12-13T05:12:38.395Z,58.85
2022-12-13T05:15:06.158Z,58.52
2022-12-13T05:17:33.090Z,58.47
2022-12-13T05:19:59.869Z,58.50
2022-12-13T05:22:27.012Z,58.55
2022-12-13T05:24:54.021Z,59.54
2022-12-13T05:27:25.250Z,58.97
2022-12-13T05:30:05.345Z,59.14
2022-12-13T05:32:43.121Z,58.80
2022-12-13T05:35:13.814Z,57.89
2022-12-13T05:37:41.095Z,58.32
2022-12-13T05:40:08.843Z,58.10
2022-12-13T05:42:38.371Z,58.43
2022-12-13T05:45:07.998Z,58.24
2022-12-13T05:47:34.670Z,59.96
2022-12-13T05:50:01.440Z,59.25
2022-12-13T05:52:30.649Z,58.33
2022-12-13T05:55:01.322Z,58.55
2022-12-13T05:57:28.377Z,59.33
2022-12-13T05:59:55.690Z,58.87
2022-12-13T06:02:22.897Z,56.89
2022-12-13T06:04:50.489Z,56.66
2022-12-13T06:07:17.240Z,56.70
2022-12-13T06:09:43.990Z,57.23
2022-12-13T06:12:30.935Z,56.64
2022-12-13T06:15:01.171Z,58.72
2022-12-13T06:17:33.055Z,57.04
2022-12-13T06:20:00.407Z,57.74
2022-12-13T06:22:27.804Z,56.66
2022-12-13T06:24:55.197Z,56.78
2022-12-13T06:27:22.075Z,56.93
2022-12-13T06:29:49.064Z,57.03
2022-12-13T06:32:15.824Z,57.74
2022-12-13T06:34:42.529Z,57.52
2022-12-13T06:37:13.112Z,56.69
2022-12-13T06:39:40.654Z,56.51
2022-12-13T06:42:14.629Z,56.71
2022-12-13T06:44:55.640Z,56.72
2022-12-13T06:47:31.045Z,56.17
2022-12-13T06:49:59.330Z,56.09
2022-12-13T06:52:32.776Z,57.52
2022-12-13T06:55:00.047Z,55.52
2022-12-13T06:57:27.016Z,55.90
2022-12-13T06:59:53.766Z,57.25
2022-12-13T07:02:25.643Z,56.62
2022-12-13T07:04:53.632Z,57.37
2022-12-13T07:07:20.351Z,56.99
2022-12-13T07:09:47.183Z,56.97
2022-12-13T07:12:14.000Z,54.79
2022-12-13T07:14:41.443Z,55.14
2022-12-13T07:17:08.485Z,55.32
2022-12-13T07:19:36.477Z,55.50
2022-12-13T07:22:05.942Z,55.18
2022-12-13T07:24:34.779Z,54.37
2022-12-13T07:27:02.484Z,54.18
2022-12-13T07:29:29.549Z,55.10
2022-12-13T07:32:01.568Z,54.38
2022-12-13T07:34:29.321Z,53.99
2022-12-13T07:36:55.971Z,54.45
2022-12-13T07:39:25.948Z,55.15
2022-12-13T07:41:55.990Z,54.47
2022-12-13T07:44:24.180Z,54.30
2022-12-13T07:46:51.070Z,54.19
2022-12-13T07:49:18.027Z,53.87
2022-12-13T07:51:45.762Z,54.15
2022-12-13T07:54:12.565Z,54.67
2022-12-13T07:56:39.239Z,53.36
2022-12-13T07:59:06.159Z,53.00
2022-12-13T08:01:36.473Z,52.50
2022-12-13T08:04:04.929Z,52.44
2022-12-13T08:06:36.430Z,54.05
2022-12-13T08:09:05.999Z,52.33
2022-12-13T08:11:33.194Z,52.88
2022-12-13T08:14:00.135Z,51.80
2022-12-13T08:16:29.361Z,51.00
2022-12-13T08:19:01.825Z,51.95
2022-12-13T08:24:21.510Z,52.24
2022-12-13T08:26:48.254Z,53.09
2022-12-13T08:29:23.307Z,51.35
2022-12-13T08:32:07.815Z,51.53
2022-12-13T08:34:34.649Z,50.72
2022-12-13T08:37:03.616Z,50.67
2022-12-13T08:39:35.368Z,49.86
2022-12-13T08:42:20.086Z,48.64
2022-12-13T08:44:49.213Z,49.19
2022-12-13T08:47:24.495Z,47.81
2022-12-13T08:49:54.359Z,47.83
2022-12-13T08:52:22.824Z,45.31
2022-12-13T08:54:49.804Z,46.72
2022-12-13T08:57:16.897Z,47.16
2022-12-13T08:59:45.160Z,47.87
2022-12-13T09:02:14.068Z,46.27
2022-12-13T09:04:41.087Z,45.98
2022-12-13T09:07:08.094Z,46.79
2022-12-13T09:09:34.782Z,45.64
2022-12-13T09:12:10.910Z,45.29
2022-12-13T09:14:45.500Z,44.55
2022-12-13T09:17:24.786Z,44.33
2022-12-13T09:19:58.366Z,43.19
2022-12-13T09:22:33.186Z,42.15
2022-12-13T09:25:02.992Z,41.23
2022-12-13T09:27:31.308Z,41.59
2022-12-13T09:30:08.265Z,40.57
2022-12-13T09:32:35.243Z,40.89
2022-12-13T09:35:02.130Z,42.91
2022-12-13T09:37:29.508Z,41.66
2022-12-13T09:39:56.301Z,42.39
2022-12-13T09:42:30.730Z,42.75
2022-12-13T09:45:04.442Z,42.85
2022-12-13T09:47:36.118Z,43.73
2022-12-13T09:50:14.985Z,43.90
2022-12-13T09:52:44.194Z,43.65
2022-12-13T09:55:18.911Z,43.27
2022-12-13T09:57:45.804Z,42.51
2022-12-13T10:00:16.774Z,42.09
2022-12-13T10:02:49.732Z,42.33
2022-12-13T10:05:39.910Z,40.62
2022-12-13T10:08:15.232Z,42.48
2022-12-13T10:10:43.914Z,41.19
2022-12-13T10:13:49.024Z,42.14
2022-12-13T10:16:23.287Z,41.86
2022-12-13T10:18:50.865Z,42.81
2022-12-13T10:21:22.562Z,42.34
2022-12-13T10:26:38.311Z,39.99
2022-12-13T10:29:06.775Z,40.64
2022-12-13T10:31:46.141Z,39.86
2022-12-13T10:34:29.742Z,41.59
2022-12-13T10:36:59.933Z,40.39
2022-12-13T10:39:41.472Z,41.06
2022-12-13T10:42:23.704Z,42.21
2022-12-13T10:45:23.517Z,41.93
2022-12-13T10:47:51.079Z,42.06
2022-12-13T10:50:27.382Z,42.41
2022-12-13T10:52:55.956Z,42.21
2022-12-13T10:55:28.824Z,43.00
2022-12-13T10:57:59.183Z,43.22
2022-12-13T11:00:37.906Z,43.49
2022-12-13T11:03:05.625Z,44.35
2022-12-13T11:05:35.470Z,45.05
2022-12-13T11:08:20.558Z,43.91
2022-12-13T11:10:57.477Z,42.34
2022-12-13T11:15:25.600Z,41.37
2022-12-13T11:17:59.386Z,39.45
2022-12-13T11:20:38.056Z,38.23
2022-12-13T11:23:43.682Z,40.23
2022-12-13T11:26:24.616Z,40.88
2022-12-13T11:29:00.491Z,40.24
2022-12-13T11:31:48.953Z,39.64
2022-12-13T11:34:41.720Z,41.11
2022-12-13T11:37:25.804Z,40.52
2022-12-13T11:40:01.858Z,40.81
2022-12-13T11:42:44.269Z,41.06
2022-12-13T11:45:54.383Z,40.33
2022-12-13T11:48:44.429Z,39.11
2022-12-13T11:51:13.985Z,38.39
2022-12-13T11:54:30.297Z,36.52
2022-12-13T11:57:05.544Z,35.59
2022-12-13T11:59:45.571Z,35.39
2022-12-13T12:02:21.562Z,34.89
2022-12-13T12:04:59.977Z,34.41
2022-12-13T12:08:12.517Z,32.64
2022-12-13T12:10:47.653Z,31.39
2022-12-13T12:13:34.869Z,30.16
2022-12-13T12:16:37.516Z,29.91
2022-12-13T12:19:14.699Z,28.52
2022-12-13T12:22:15.120Z,28.92
2022-12-13T12:25:08.689Z,28.61
2022-12-13T12:28:19.623Z,29.34
2022-12-13T12:31:23.707Z,28.69
2022-12-13T12:34:03.065Z,28.30
2022-12-13T12:37:04.303Z,29.99
2022-12-13T12:39:52.099Z,32.18
2022-12-13T12:43:14.091Z,33.65
2022-12-13T12:45:57.574Z,34.20
2022-12-13T12:48:56.867Z,32.83
2022-12-13T12:51:30.457Z,34.32
2022-12-13T12:54:10.509Z,34.50
2022-12-13T12:57:07.929Z,34.15
2022-12-13T13:00:04.046Z,33.39
2022-12-13T13:02:48.076Z,33.15
2022-12-13T13:05:58.547Z,33.00
2022-12-13T13:08:53.235Z,31.81
2022-12-13T13:11:27.052Z,32.22
2022-12-13T13:14:31.133Z,32.81
2022-12-13T13:17:00.008Z,33.72
2022-12-13T13:19:33.527Z,33.44
2022-12-13T13:22:01.950Z,35.11
2022-12-13T13:24:34.763Z,36.65
2022-12-13T13:27:10.606Z,38.86
2022-12-13T13:29:43.639Z,39.71
2022-12-13T13:32:29.321Z,40.52
2022-12-13T13:35:36.303Z,41.81
2022-12-13T13:38:24.958Z,41.94
2022-12-13T13:40:52.050Z,42.69
2022-12-13T13:43:32.600Z,43.73
2022-12-13T13:46:11.002Z,42.91
2022-12-13T13:49:03.383Z,43.81
2022-12-13T13:55:25.467Z,43.84
2022-12-13T13:58:22.008Z,43.89
2022-12-13T14:01:20.584Z,42.97
2022-12-13T14:03:53.830Z,44.78
2022-12-13T14:06:29.749Z,44.85
2022-12-13T14:08:56.629Z,45.24
2022-12-13T14:11:26.098Z,46.85
2022-12-13T14:14:21.766Z,47.07
2022-12-13T14:17:02.346Z,46.96
2022-12-13T14:19:44.069Z,46.39
2022-12-13T14:22:27.818Z,48.28
2022-12-13T14:25:26.183Z,46.08
2022-12-13T14:28:00.408Z,48.39
2022-12-13T14:30:29.422Z,47.26
2022-12-13T14:32:57.242Z,46.51
2022-12-13T14:35:29.896Z,47.27
2022-12-13T14:37:58.961Z,47.58
2022-12-13T14:40:33.728Z,47.08
2022-12-13T14:43:01.202Z,47.61
2022-12-13T14:45:37.187Z,48.63
2022-12-13T14:48:11.787Z,49.27
2022-12-13T14:50:41.378Z,48.14
2022-12-13T14:53:19.572Z,48.54
2022-12-13T14:56:28.534Z,48.69
2022-12-13T14:59:02.119Z,49.72
2022-12-13T15:01:34.779Z,49.22
2022-12-13T15:04:26.909Z,49.41
2022-12-13T15:07:44.975Z,48.63
2022-12-13T15:10:20.725Z,48.71
2022-12-13T15:12:49.350Z,47.74
2022-12-13T15:15:25.914Z,48.26
2022-12-13T15:18:26.187Z,48.19
2022-12-13T15:20:59.524Z,50.07
2022-12-13T15:23:30.332Z,48.20
2022-12-13T15:26:28.004Z,48.77
2022-12-13T15:29:01.860Z,48.11
2022-12-13T15:31:38.250Z,48.17
2022-12-13T15:34:34.796Z,48.76
2022-12-13T15:37:29.607Z,48.51
2022-12-13T15:40:08.883Z,48.84
2022-12-13T15:42:38.869Z,48.68
2022-12-13T15:45:17.617Z,48.78
2022-12-13T15:47:46.843Z,47.58
2022-12-13T15:50:45.197Z,49.05
2022-12-13T15:53:27.647Z,49.82
2022-12-13T15:55:55.091Z,50.17
2022-12-13T15:58:30.485Z,50.75
2022-12-13T16:00:58.601Z,50.55
2022-12-13T16:03:27.128Z,51.11
2022-12-13T16:05:56.564Z,51.02
2022-12-13T16:08:31.559Z,50.53
2022-12-13T16:10:59.088Z,50.86
2022-12-13T16:13:28.905Z,50.76
2022-12-13T16:16:09.199Z,50.47
2022-12-13T16:18:45.855Z,51.75
2022-12-13T16:21:14.496Z,52.07
2022-12-13T16:23:48.422Z,51.46
2022-12-13T16:26:22.030Z,51.86
2022-12-13T16:28:49.075Z,51.74
2022-12-13T16:31:24.475Z,51.27
2022-12-13T16:33:51.637Z,51.27
2022-12-13T16:36:18.442Z,52.42
2022-12-13T16:38:45.840Z,51.99
2022-12-13T16:41:12.780Z,51.80
2022-12-13T16:43:53.810Z,53.08
2022-12-13T16:47:11.779Z,52.49
2022-12-13T16:49:24.897Z,52.96
2022-12-13T16:51:52.225Z,52.98
2022-12-13T16:54:20.306Z,52.53
2022-12-13T16:56:48.383Z,52.75
2022-12-13T16:59:17.794Z,52.14
2022-12-13T17:01:45.439Z,51.89
2022-12-13T17:04:19.530Z,52.71
2022-12-13T17:06:47.583Z,52.40
2022-12-13T17:09:14.318Z,51.49
2022-12-13T17:11:41.302Z,52.12
2022-12-13T17:14:08.247Z,52.00
2022-12-13T17:16:35.377Z,51.96
2022-12-13T17:19:02.302Z,52.81
2022-12-13T17:21:30.059Z,53.34
2022-12-13T17:23:57.851Z,52.80
2022-12-13T17:26:26.117Z,52.32
2022-12-13T17:28:53.257Z,52.66
2022-12-13T17:31:20.860Z,52.76
2022-12-13T17:33:47.781Z,53.01
2022-12-13T17:36:17.764Z,53.26
2022-12-13T17:38:47.020Z,53.77
2022-12-13T17:41:15.499Z,52.44
2022-12-13T17:43:43.417Z,53.79
2022-12-13T17:46:15.239Z,53.19
2022-12-13T17:48:43.605Z,52.81
2022-12-13T17:51:12.332Z,54.47
2022-12-13T17:53:41.286Z,54.82
2022-12-13T17:56:11.986Z,53.43
2022-12-13T17:58:40.102Z,53.03
2022-12-13T18:01:26.686Z,53.79
2022-12-13T18:03:55.743Z,53.48
2022-12-13T18:06:24.804Z,53.39
2022-12-13T18:08:51.794Z,53.18
2022-12-13T18:11:35.404Z,52.91
2022-12-13T18:14:07.555Z,53.67
2022-12-13T18:16:38.359Z,54.13
2022-12-13T18:19:12.147Z,54.93
2022-12-13T18:21:39.364Z,54.01
2022-12-13T18:24:07.028Z,53.99
2022-12-13T18:26:34.105Z,53.10
2022-12-13T18:29:01.187Z,53.48
2022-12-13T18:31:28.385Z,53.55
2022-12-13T18:33:55.785Z,53.84
2022-12-13T18:36:24.438Z,53.38
2022-12-13T18:38:51.564Z,53.32
2022-12-13T18:41:21.444Z,54.40
2022-12-13T18:43:48.869Z,53.82
2022-12-13T18:46:16.144Z,53.67
2022-12-13T18:48:43.287Z,53.30
2022-12-13T18:51:11.293Z,55.01
2022-12-13T18:53:40.083Z,54.57
2022-12-13T18:56:18.369Z,55.11
2022-12-13T18:58:48.257Z,54.77
2022-12-13T19:01:16.698Z,55.16
2022-12-13T19:03:45.861Z,54.42
2022-12-13T19:06:17.140Z,55.82
2022-12-13T19:08:46.722Z,54.96
2022-12-13T19:11:13.432Z,54.83
2022-12-13T19:13:40.288Z,56.15
2022-12-13T19:16:10.335Z,55.27
2022-12-13T19:18:37.709Z,54.79
2022-12-13T19:21:08.213Z,54.67
2022-12-13T19:23:35.591Z,54.88
2022-12-13T19:26:10.509Z,55.33
2022-12-13T19:28:44.119Z,54.70
2022-12-13T19:31:17.535Z,55.18
2022-12-13T19:33:44.419Z,54.78
2022-12-13T19:36:11.464Z,54.29
2022-12-13T19:38:39.897Z,54.34
2022-12-13T19:41:10.524Z,55.71
2022-12-13T19:43:37.902Z,54.72
2022-12-13T19:46:06.754Z,54.39
2022-12-13T19:48:34.509Z,54.34
2022-12-13T19:51:02.521Z,54.04
2022-12-13T19:53:30.760Z,53.91
2022-12-13T19:55:58.008Z,53.87
2022-12-13T19:58:26.035Z,53.42
2022-12-13T20:00:53.895Z,53.90
2022-12-13T20:03:20.773Z,54.00
2022-12-13T20:05:57.227Z,53.58
2022-12-13T20:08:24.222Z,53.43
2022-12-13T20:11:01.597Z,53.07
2022-12-13T20:13:29.222Z,53.52
2022-12-13T20:15:56.394Z,53.74
2022-12-13T20:18:23.983Z,53.89
2022-12-13T20:21:11.233Z,53.31
2022-12-13T20:23:38.449Z,53.56
2022-12-13T20:26:11.504Z,54.13
2022-12-13T20:28:38.814Z,53.87
2022-12-13T20:31:12.415Z,53.38
2022-12-13T20:33:40.125Z,53.56
2022-12-13T20:36:26.707Z,53.76
2022-12-13T20:38:59.537Z,53.84
2022-12-13T20:41:28.505Z,54.19
2022-12-13T20:43:57.270Z,53.66
2022-12-13T20:46:25.440Z,54.00
2022-12-13T20:48:53.323Z,54.57
2022-12-13T20:51:23.056Z,54.69
2022-12-13T20:53:51.368Z,54.35
2022-12-13T20:56:21.645Z,54.28
2022-12-13T20:58:48.791Z,53.57
2022-12-13T21:01:21.534Z,53.39
2022-12-13T21:03:49.495Z,54.35
2022-12-13T21:06:16.298Z,54.39
2022-12-13T21:08:52.231Z,53.98
2022-12-13T21:11:36.512Z,53.39
2022-12-13T21:14:12.143Z,53.52
2022-12-13T21:16:44.114Z,54.21
2022-12-13T21:19:14.237Z,54.76
2022-12-13T21:21:41.461Z,53.75
2022-12-13T21:24:09.056Z,53.88
2022-12-13T21:26:36.790Z,54.01
2022-12-13T21:29:06.862Z,54.46
2022-12-13T21:31:35.141Z,54.71
2022-12-13T21:34:03.202Z,54.37
2022-12-13T21:36:32.349Z,53.90
2022-12-13T21:39:07.580Z,55.05
2022-12-13T21:41:34.658Z,55.42
2022-12-13T21:44:01.501Z,55.06
2022-12-13T21:46:47.889Z,54.76
2022-12-13T21:49:16.769Z,55.45
2022-12-13T21:51:47.862Z,55.48
2022-12-13T21:54:14.838Z,55.88
2022-12-13T21:57:00.111Z,55.07
2022-12-13T21:59:28.716Z,55.90
2022-12-13T22:02:16.982Z,56.10
2022-12-13T22:04:51.871Z,55.93
2022-12-13T22:07:21.593Z,56.37
2022-12-13T22:09:49.732Z,56.74
2022-12-13T22:12:21.710Z,56.69
2022-12-13T22:14:49.222Z,57.07
2022-12-13T22:17:16.375Z,56.82
2022-12-13T22:19:43.113Z,57.17
2022-12-13T22:22:15.809Z,56.88
2022-12-13T22:24:42.566Z,57.49
2022-12-13T22:27:09.456Z,57.09
2022-12-13T22:29:36.409Z,56.73
2022-12-13T22:32:03.517Z,56.80
2022-12-13T22:34:31.669Z,56.94
2022-12-13T22:36:59.146Z,56.32
2022-12-13T22:39:26.250Z,56.90
2022-12-13T22:41:53.002Z,56.49
2022-12-13T22:44:20.709Z,57.25
2022-12-13T22:46:48.516Z,56.79
2022-12-13T22:49:15.450Z,57.31
2022-12-13T22:51:42.387Z,57.84
2022-12-13T22:54:10.010Z,58.20
2022-12-13T22:56:37.252Z,57.82
2022-12-13T22:59:08.002Z,57.79
2022-12-13T23:01:37.765Z,57.62
2022-12-13T23:04:06.250Z,57.31
2022-12-13T23:06:36.329Z,57.14
2022-12-13T23:09:06.358Z,57.39
2022-12-13T23:11:51.955Z,57.51
2022-12-13T23:14:24.618Z,57.04
2022-12-13T23:16:51.730Z,56.52
2022-12-13T23:22:08.477Z,57.32
2022-12-13T23:24:35.523Z,57.42
2022-12-13T23:27:02.370Z,58.17
2022-12-13T23:29:29.212Z,58.64
2022-12-13T23:31:56.061Z,58.76
2022-12-13T23:34:22.843Z,58.49
2022-12-13T23:36:49.615Z,58.24
2022-12-13T23:39:16.450Z,57.78
2022-12-13T23:41:43.190Z,57.64
2022-12-13T23:44:10.343Z,58.25
2022-12-13T23:46:37.172Z,58.12
2022-12-13T23:49:06.504Z,57.84
2022-12-13T23:51:34.467Z,58.65
2022-12-13T23:54:01.453Z,58.57
2022-12-13T23:56:29.283Z,58.01
2022-12-13T23:58:56.003Z,57.56
